Coastal Carolina Regional Airport
KEWN : now visible

Airfield :











YOU CAN JOIN US ON...

 
LOGIN :

Register | Disclaimer

   EN    FR    IT 

 









Legend :    VFR   Marginal VFR   IFR   Intensive IFR   Very Intensive IFR
Visi :
Ceiling :
>= 8 km
>= 3000ft
5 to 8 km
1000 to 3000 ft
1500m to 5 km
500 to 1000 ft
800 to 1500m
200 to 500 ft
< 800m
< 200 ft
Symbols :   Thunderstorms  Fog  Heavy snow  Heavy precipitations  Wind > 20 kt






- Airport Elevation : 18 ft
- IATA code : EWN


KEWN - Coastal Carolina Regional

CURRENT METAR :
  • 050754Z AUTO 35005KT 10SM BKN008 OVC023 21/21 A3005 RMK AO2 SLP176 T02110206

EXPIRED METARs :
  • 050744Z AUTO 35005KT 10SM BKN008 OVC024 21/21 A3005 RMK AO2 CIG 005V012 T02110206
  • 050732Z AUTO 34005KT 10SM SCT008 OVC025 21/21 A3005 RMK AO2 T02110206
  • 050718Z AUTO 34005KT 10SM SCT006 OVC025 21/21 A3005 RMK AO2 T02110206
  • 050654Z AUTO 35005KT 8SM BKN009 OVC024 21/21 A3005 RMK AO2 CIG 006V012 SLP175 T02110206
  • 050624Z AUTO 34004KT 10SM BKN010 BKN016 OVC024 21/21 A3005 RMK AO2 CIG 008V012 T02110206
  • 050554Z AUTO 34004KT 10SM FEW009 BKN016 OVC024 21/21 A3005 RMK AO2 SLP176 T02110206 10217 20211 51002

TAF KEWN
Valid from the 05 at 06:00 until the 06 at 06:00 UTC


050521Z 0506/0606 35006KT P6SM FEW007 OVC025
FM050800 33004KT 3SM BR BKN007
FM051100 35004KT 5SM BR BKN010
FM051300 36005KT P6SM BKN015
FM051700 VRB03KT P6SM SCT025
KZDC FIR / North America



MET'MAP, your aeronautical weather chart ! - Copyright ORBIFLY December 2007 - Disclaimer

ORBIFLY MET'MAP TEAM :

Programming & Development : Alexandra Zaïnal
Concept & original design : Baudouin d'Aumeries
Assistance for programming : Marc-Olivier Méhu
Technical & hardware support : Manuel Goepfert

Contact : metmap@orbifly.com




SOURCES & CREDITS :

   NOAA       Earth
Advisory